createdAt,value
2022-09-13T00:02:30.384Z,2.4
2022-09-13T00:10:02.758Z,2.4
2022-09-13T00:17:35.041Z,2.4
2022-09-13T00:25:07.490Z,2.4
2022-09-13T00:32:39.786Z,2.5
2022-09-13T00:40:12.127Z,2.5
2022-09-13T00:47:44.514Z,2.5
2022-09-13T00:55:16.833Z,2.5
2022-09-13T01:02:49.141Z,2.5
2022-09-13T01:10:21.436Z,2.5
2022-09-13T01:17:53.727Z,2.5
2022-09-13T01:25:26.031Z,2.5
2022-09-13T01:32:58.348Z,2.5
2022-09-13T01:40:30.643Z,2.5
2022-09-13T01:48:02.970Z,2.5
2022-09-13T01:55:35.294Z,2.5
2022-09-13T02:03:07.615Z,2.5
2022-09-13T02:10:39.906Z,2.5
2022-09-13T02:18:12.140Z,2.5
2022-09-13T02:25:44.417Z,2.5
2022-09-13T02:33:16.685Z,2.2
2022-09-13T02:40:48.957Z,2.2
2022-09-13T02:48:21.260Z,2.2
2022-09-13T02:55:53.676Z,2.2
2022-09-13T03:03:25.953Z,2.2
2022-09-13T03:10:58.224Z,2.2
2022-09-13T03:18:30.492Z,2.2
2022-09-13T03:26:02.780Z,2.3
2022-09-13T03:33:35.072Z,2.3
2022-09-13T03:41:07.385Z,2.3
2022-09-13T03:48:39.651Z,2.3
2022-09-13T03:56:11.979Z,2.3
2022-09-13T04:03:44.249Z,2.3
2022-09-13T04:11:16.530Z,2.3
2022-09-13T04:19:16.111Z,2.3
2022-09-13T04:20:03.399Z,2.0
2022-09-13T04:20:50.656Z,2.0
2022-09-13T04:21:37.913Z,2.0
2022-09-13T04:22:25.264Z,2.0
2022-09-13T04:23:12.530Z,2.0
2022-09-13T04:23:59.806Z,2.0
2022-09-13T04:24:47.080Z,2.0
2022-09-13T04:25:34.336Z,2.0
2022-09-13T04:26:21.600Z,2.0
2022-09-13T04:27:08.894Z,2.0
2022-09-13T04:27:56.216Z,2.0
2022-09-13T04:28:43.490Z,2.0
2022-09-13T04:29:30.779Z,2.0
2022-09-13T04:30:18.045Z,2.0
2022-09-13T04:31:05.315Z,2.0
2022-09-13T04:31:52.683Z,2.0
2022-09-13T04:32:39.976Z,2.0
2022-09-13T04:33:27.238Z,2.0
2022-09-13T04:34:14.871Z,2.0
2022-09-13T04:35:02.213Z,2.0
2022-09-13T04:35:49.494Z,2.0
2022-09-13T04:36:36.813Z,2.0
2022-09-13T04:37:24.180Z,2.0
2022-09-13T04:38:11.441Z,2.0
2022-09-13T04:38:58.945Z,2.0
2022-09-13T04:39:46.256Z,2.0
2022-09-13T04:40:33.584Z,2.0
2022-09-13T04:41:20.896Z,2.0
2022-09-13T04:42:08.177Z,2.0
2022-09-13T04:42:55.446Z,2.0
2022-09-13T04:43:42.751Z,2.0
2022-09-13T04:44:30.003Z,2.0
2022-09-13T04:45:17.277Z,2.0
2022-09-13T04:46:04.649Z,2.0
2022-09-13T04:46:52.011Z,2.0
2022-09-13T04:47:39.381Z,2.0
2022-09-13T04:48:26.640Z,2.0
2022-09-13T04:49:13.928Z,2.0
2022-09-13T04:50:01.203Z,2.0
2022-09-13T04:50:48.519Z,2.0
2022-09-13T04:51:35.792Z,2.0
2022-09-13T04:52:23.050Z,2.0
2022-09-13T04:53:10.383Z,2.0
2022-09-13T04:53:57.644Z,2.0
2022-09-13T04:54:44.912Z,2.0
2022-09-13T04:55:32.224Z,2.0
2022-09-13T04:56:19.494Z,2.0
2022-09-13T04:57:06.812Z,2.0
2022-09-13T04:57:54.266Z,2.0
2022-09-13T04:58:41.577Z,2.0
2022-09-13T04:59:28.844Z,2.0
2022-09-13T05:00:16.155Z,2.0
2022-09-13T05:01:03.513Z,2.0
2022-09-13T05:01:50.834Z,2.0
2022-09-13T05:02:38.214Z,2.0
2022-09-13T05:03:25.642Z,2.0
2022-09-13T05:04:12.913Z,2.0
2022-09-13T05:05:00.214Z,2.0
2022-09-13T05:05:47.482Z,2.0
2022-09-13T05:06:34.747Z,2.0
2022-09-13T05:07:22.030Z,2.0
2022-09-13T05:08:09.316Z,2.0
2022-09-13T05:08:56.595Z,2.0
2022-09-13T05:09:43.867Z,2.0
2022-09-13T05:10:31.136Z,2.0
2022-09-13T05:11:18.409Z,2.0
2022-09-13T05:12:05.688Z,2.0
2022-09-13T05:12:52.965Z,2.0
2022-09-13T05:13:40.255Z,2.0
2022-09-13T05:14:27.529Z,2.0
2022-09-13T05:15:14.813Z,2.0
2022-09-13T05:16:02.144Z,2.0
2022-09-13T05:16:49.437Z,2.0
2022-09-13T05:17:36.711Z,2.0
2022-09-13T05:18:23.973Z,2.0
2022-09-13T05:19:11.282Z,3.6
2022-09-13T05:19:58.539Z,3.6
2022-09-13T05:20:45.801Z,3.6
2022-09-13T05:21:33.081Z,3.6
2022-09-13T05:22:20.336Z,3.6
2022-09-13T05:23:07.614Z,3.6
2022-09-13T05:23:54.906Z,3.6
2022-09-13T05:24:42.187Z,3.6
2022-09-13T05:25:29.464Z,3.6
2022-09-13T05:26:16.786Z,3.6
2022-09-13T05:27:04.069Z,3.6
2022-09-13T05:27:51.339Z,3.6
2022-09-13T05:28:38.645Z,3.6
2022-09-13T05:29:25.921Z,3.6
2022-09-13T05:30:13.222Z,3.6
2022-09-13T05:31:00.575Z,3.6
2022-09-13T05:31:47.870Z,3.6
2022-09-13T05:32:35.136Z,3.6
2022-09-13T05:33:22.445Z,3.6
2022-09-13T05:34:09.714Z,3.6
2022-09-13T05:34:56.977Z,3.6
2022-09-13T05:35:44.323Z,3.6
2022-09-13T05:36:31.602Z,3.6
2022-09-13T05:37:18.867Z,3.6
2022-09-13T05:38:06.203Z,3.6
2022-09-13T05:39:12.335Z,3.6
2022-09-13T05:40:10.242Z,3.6
2022-09-13T05:40:48.034Z,3.6
2022-09-13T05:41:35.373Z,3.6
2022-09-13T05:42:22.653Z,3.6
2022-09-13T05:43:09.921Z,3.6
2022-09-13T05:44:00.627Z,3.6
2022-09-13T05:44:51.126Z,3.6
2022-09-13T05:45:38.556Z,3.6
2022-09-13T05:46:25.861Z,3.6
2022-09-13T05:47:13.170Z,3.6
2022-09-13T05:48:00.598Z,3.6
2022-09-13T05:48:47.857Z,3.6
2022-09-13T05:49:39.012Z,3.6
2022-09-13T05:50:57.197Z,3.6
2022-09-13T05:51:29.622Z,3.6
2022-09-13T05:52:17.022Z,3.6
2022-09-13T05:53:04.300Z,3.6
2022-09-13T05:53:51.633Z,3.6
2022-09-13T05:54:39.013Z,3.6
2022-09-13T05:55:26.278Z,3.6
2022-09-13T05:56:16.639Z,3.6
2022-09-13T05:57:04.145Z,3.6
2022-09-13T05:57:51.589Z,3.6
2022-09-13T05:58:38.859Z,3.6
2022-09-13T05:59:26.138Z,3.6
2022-09-13T06:00:13.537Z,3.6
2022-09-13T06:01:00.807Z,3.6
2022-09-13T06:01:48.097Z,3.6
2022-09-13T06:02:35.798Z,3.6
2022-09-13T06:03:23.198Z,3.6
2022-09-13T06:04:10.475Z,3.6
2022-09-13T06:04:57.773Z,3.6
2022-09-13T06:05:45.045Z,3.6
2022-09-13T06:06:32.321Z,3.6
2022-09-13T06:07:19.622Z,3.6
2022-09-13T06:08:06.896Z,3.6
2022-09-13T06:08:54.183Z,3.6
2022-09-13T06:09:41.480Z,3.6
2022-09-13T06:10:28.804Z,3.6
2022-09-13T06:11:16.099Z,3.6
2022-09-13T06:12:03.414Z,3.6
2022-09-13T06:12:50.688Z,3.6
2022-09-13T06:13:37.980Z,3.6
2022-09-13T06:14:25.281Z,3.6
2022-09-13T06:15:12.554Z,3.6
2022-09-13T06:15:59.875Z,3.6
2022-09-13T06:16:47.196Z,3.6
2022-09-13T06:17:34.459Z,3.6
2022-09-13T06:18:21.734Z,3.6
2022-09-13T06:19:09.023Z,3.6
2022-09-13T06:19:56.300Z,5.2
2022-09-13T06:20:43.578Z,5.2
2022-09-13T06:21:30.877Z,5.2
2022-09-13T06:22:18.158Z,5.2
2022-09-13T06:23:05.467Z,5.2
2022-09-13T06:23:52.765Z,5.2
2022-09-13T06:24:40.071Z,5.2
2022-09-13T06:25:27.355Z,5.2
2022-09-13T06:26:14.672Z,5.2
2022-09-13T06:27:01.958Z,5.2
2022-09-13T06:27:50.223Z,5.2
2022-09-13T06:28:37.742Z,5.2
2022-09-13T06:29:25.052Z,5.2
2022-09-13T06:30:12.361Z,5.2
2022-09-13T06:30:59.731Z,5.2
2022-09-13T06:31:47.050Z,5.2
2022-09-13T06:32:34.315Z,5.2
2022-09-13T06:33:21.589Z,5.2
2022-09-13T06:34:09.033Z,5.2
2022-09-13T06:34:56.309Z,5.2
2022-09-13T06:35:43.594Z,5.2
2022-09-13T06:36:30.992Z,5.2
2022-09-13T06:37:18.258Z,5.2
2022-09-13T06:38:05.536Z,5.2
2022-09-13T06:38:52.973Z,5.2
2022-09-13T06:39:40.282Z,5.2
2022-09-13T06:40:27.642Z,5.2
2022-09-13T06:41:15.054Z,5.2
2022-09-13T06:42:02.342Z,5.2
2022-09-13T06:42:49.634Z,5.2
2022-09-13T06:43:37.048Z,5.2
2022-09-13T06:44:24.345Z,5.2
2022-09-13T06:45:11.633Z,5.2
2022-09-13T06:45:59.100Z,5.2
2022-09-13T06:46:46.442Z,5.2
2022-09-13T06:47:33.724Z,5.2
2022-09-13T06:48:21.132Z,5.2
2022-09-13T06:49:08.412Z,5.2
2022-09-13T06:49:55.677Z,5.2
2022-09-13T06:50:43.102Z,5.2
2022-09-13T06:51:30.375Z,5.2
2022-09-13T06:52:17.652Z,5.2
2022-09-13T06:53:05.110Z,5.2
2022-09-13T06:53:52.398Z,5.2
2022-09-13T06:54:39.669Z,5.2
2022-09-13T06:55:27.072Z,5.2
2022-09-13T06:56:14.356Z,5.2
2022-09-13T06:57:01.633Z,5.2
2022-09-13T06:57:49.050Z,5.2
2022-09-13T06:58:36.352Z,5.2
2022-09-13T06:59:23.614Z,5.2
2022-09-13T07:00:11.021Z,5.2
2022-09-13T07:00:58.377Z,5.2
2022-09-13T07:01:45.772Z,5.2
2022-09-13T07:02:33.108Z,5.2
2022-09-13T07:03:20.508Z,5.2
2022-09-13T07:04:07.771Z,5.2
2022-09-13T07:04:55.178Z,5.2
2022-09-13T07:05:42.436Z,5.2
2022-09-13T07:06:29.711Z,5.2
2022-09-13T07:07:17.124Z,5.2
2022-09-13T07:08:04.406Z,5.2
2022-09-13T07:08:51.721Z,5.2
2022-09-13T07:09:39.100Z,5.2
2022-09-13T07:10:26.391Z,5.2
2022-09-13T07:11:13.658Z,5.2
2022-09-13T07:12:01.085Z,5.2
2022-09-13T07:12:48.370Z,5.2
2022-09-13T07:13:35.631Z,5.2
2022-09-13T07:14:23.215Z,5.2
2022-09-13T07:15:10.541Z,5.2
2022-09-13T07:15:57.833Z,5.2
2022-09-13T07:16:45.243Z,5.2
2022-09-13T07:17:32.556Z,5.2
2022-09-13T07:18:19.825Z,5.2
2022-09-13T07:19:07.401Z,5.2
2022-09-13T07:19:54.685Z,7.4
2022-09-13T07:20:41.962Z,7.4
2022-09-13T07:21:29.389Z,7.4
2022-09-13T07:22:16.650Z,7.4
2022-09-13T07:23:03.921Z,7.4
2022-09-13T07:23:51.342Z,7.4
2022-09-13T07:24:38.604Z,7.4
2022-09-13T07:25:25.904Z,7.4
2022-09-13T07:26:13.314Z,7.4
2022-09-13T07:27:00.589Z,7.4
2022-09-13T07:27:47.868Z,7.4
2022-09-13T07:28:35.604Z,7.4
2022-09-13T07:29:23.041Z,7.4
2022-09-13T07:30:10.300Z,7.4
2022-09-13T07:30:57.654Z,7.4
2022-09-13T07:31:44.969Z,7.4
2022-09-13T07:32:32.239Z,7.4
2022-09-13T07:33:19.562Z,7.4
2022-09-13T07:34:06.985Z,7.4
2022-09-13T07:34:54.269Z,7.4
2022-09-13T07:35:41.574Z,7.4
2022-09-13T07:36:28.849Z,7.4
2022-09-13T07:37:16.108Z,7.4
2022-09-13T07:38:03.529Z,7.4
2022-09-13T07:38:50.809Z,7.4
2022-09-13T07:39:38.081Z,7.4
2022-09-13T07:40:25.428Z,7.4
2022-09-13T07:41:12.728Z,7.4
2022-09-13T07:42:00.019Z,7.4
2022-09-13T07:42:47.285Z,7.4
2022-09-13T07:43:34.568Z,7.4
2022-09-13T07:44:21.840Z,7.4
2022-09-13T07:45:09.133Z,7.4
2022-09-13T07:45:56.434Z,7.4
2022-09-13T07:46:43.815Z,7.4
2022-09-13T07:47:31.193Z,7.4
2022-09-13T07:48:18.455Z,7.4
2022-09-13T07:49:05.718Z,7.4
2022-09-13T07:49:53.013Z,7.4
2022-09-13T07:50:40.277Z,7.4
2022-09-13T07:51:27.592Z,7.4
2022-09-13T07:52:14.862Z,7.4
2022-09-13T07:53:02.180Z,7.4
2022-09-13T07:53:51.582Z,7.4
2022-09-13T07:54:42.256Z,7.4
2022-09-13T07:55:29.684Z,7.4
2022-09-13T07:56:16.964Z,7.4
2022-09-13T07:57:04.242Z,7.4
2022-09-13T07:57:51.661Z,7.4
2022-09-13T07:58:38.945Z,7.4
2022-09-13T07:59:30.089Z,7.4
2022-09-13T08:00:17.620Z,7.4
2022-09-13T08:01:05.080Z,7.4
2022-09-13T08:01:52.679Z,7.4
2022-09-13T08:02:40.073Z,7.4
2022-09-13T08:03:27.420Z,7.4
2022-09-13T08:04:14.812Z,7.4
2022-09-13T08:05:02.079Z,7.4
2022-09-13T08:05:49.482Z,7.4
2022-09-13T08:06:36.760Z,7.4
2022-09-13T08:07:24.032Z,7.4
2022-09-13T08:08:11.420Z,7.4
2022-09-13T08:08:58.842Z,7.4
2022-09-13T08:09:46.131Z,7.4
2022-09-13T08:10:33.510Z,7.4
2022-09-13T08:11:20.935Z,7.4
2022-09-13T08:12:08.204Z,7.4
2022-09-13T08:12:55.604Z,7.4
2022-09-13T08:13:42.954Z,7.4
2022-09-13T08:14:30.266Z,7.4
2022-09-13T08:15:17.699Z,7.4
2022-09-13T08:16:05.092Z,7.4
2022-09-13T08:16:52.419Z,7.4
2022-09-13T08:17:39.848Z,7.4
2022-09-13T08:18:27.140Z,7.4
2022-09-13T08:19:14.434Z,8.4
2022-09-13T08:20:01.847Z,8.4
2022-09-13T08:20:49.137Z,8.4
2022-09-13T08:21:36.419Z,8.4
2022-09-13T08:22:23.850Z,8.4
2022-09-13T08:23:11.128Z,8.4
2022-09-13T08:23:58.401Z,8.4
2022-09-13T08:24:45.824Z,8.4
2022-09-13T08:25:33.097Z,8.4
2022-09-13T08:26:20.382Z,8.4
2022-09-13T08:27:08.254Z,8.4
2022-09-13T08:27:55.804Z,8.4
2022-09-13T08:28:43.083Z,8.4
2022-09-13T08:29:30.348Z,8.4
2022-09-13T08:30:17.678Z,8.4
2022-09-13T08:31:05.036Z,8.4
2022-09-13T08:31:52.394Z,8.4
2022-09-13T08:32:39.785Z,8.4
2022-09-13T08:33:27.055Z,8.4
2022-09-13T08:34:14.391Z,8.4
2022-09-13T08:35:01.721Z,8.4
2022-09-13T08:35:48.988Z,8.4
2022-09-13T08:36:36.876Z,8.4
2022-09-13T08:37:24.334Z,8.4
2022-09-13T08:38:11.699Z,8.4
2022-09-13T08:38:58.994Z,8.4
2022-09-13T08:39:46.560Z,8.4
2022-09-13T08:40:33.871Z,8.4
2022-09-13T08:41:21.145Z,8.4
2022-09-13T08:42:08.440Z,8.4
2022-09-13T08:42:55.836Z,8.4
2022-09-13T08:43:43.174Z,8.4
2022-09-13T08:44:30.586Z,8.4
2022-09-13T08:45:17.933Z,8.4
2022-09-13T08:46:05.238Z,8.4
2022-09-13T08:46:52.553Z,8.4
2022-09-13T08:47:39.962Z,8.4
2022-09-13T08:48:27.250Z,8.4
2022-09-13T08:49:16.501Z,8.4
2022-09-13T08:50:03.940Z,8.4
2022-09-13T08:50:51.295Z,8.4
2022-09-13T08:51:38.573Z,8.4
2022-09-13T08:52:25.856Z,8.4
2022-09-13T08:53:13.289Z,8.4
2022-09-13T08:54:00.574Z,8.4
2022-09-13T08:54:47.852Z,8.4
2022-09-13T08:55:35.260Z,8.4
2022-09-13T08:56:22.520Z,8.4
2022-09-13T08:57:09.792Z,8.4
2022-09-13T08:57:57.222Z,8.4
2022-09-13T08:58:44.497Z,8.4
2022-09-13T08:59:31.779Z,8.4
2022-09-13T09:00:20.938Z,8.4
2022-09-13T09:01:55.728Z,8.4
2022-09-13T09:02:43.028Z,8.4
2022-09-13T09:03:30.564Z,8.4
2022-09-13T09:04:17.845Z,8.4
2022-09-13T09:05:05.182Z,8.4
2022-09-13T09:05:52.476Z,8.4
2022-09-13T09:06:39.799Z,8.4
2022-09-13T09:07:27.064Z,8.4
2022-09-13T09:08:14.341Z,8.4
2022-09-13T09:09:01.649Z,8.4
2022-09-13T09:09:48.924Z,8.4
2022-09-13T09:10:36.199Z,8.4
2022-09-13T09:11:23.515Z,8.4
2022-09-13T09:12:10.791Z,8.4
2022-09-13T09:12:58.056Z,8.4
2022-09-13T09:13:45.381Z,8.4
2022-09-13T09:14:32.645Z,8.4
2022-09-13T09:15:19.933Z,8.4
2022-09-13T09:16:07.366Z,8.4
2022-09-13T09:16:54.706Z,8.4
2022-09-13T09:17:41.981Z,8.4
2022-09-13T09:18:29.285Z,8.4
2022-09-13T09:19:16.558Z,7.4
2022-09-13T09:20:03.828Z,7.4
2022-09-13T09:20:51.158Z,7.4
2022-09-13T09:21:38.672Z,7.4
2022-09-13T09:22:26.201Z,7.4
2022-09-13T09:23:16.709Z,7.4
2022-09-13T09:24:06.428Z,7.4
2022-09-13T09:24:53.833Z,7.4
2022-09-13T09:25:41.110Z,7.4
2022-09-13T09:26:28.393Z,7.4
2022-09-13T09:27:15.722Z,7.4
2022-09-13T09:28:03.005Z,7.4
2022-09-13T09:28:50.274Z,7.4
2022-09-13T09:29:37.703Z,7.4
2022-09-13T09:30:25.001Z,7.4
2022-09-13T09:31:12.335Z,7.4
2022-09-13T09:31:59.693Z,7.4
2022-09-13T09:32:46.973Z,7.4
2022-09-13T09:33:34.267Z,7.4
2022-09-13T09:34:21.679Z,7.4
2022-09-13T09:35:08.966Z,7.4
2022-09-13T09:35:56.249Z,7.4
2022-09-13T09:36:43.678Z,7.4
2022-09-13T09:37:30.980Z,7.4
2022-09-13T09:38:18.252Z,7.4
2022-09-13T09:39:05.689Z,7.4
2022-09-13T09:39:52.969Z,7.4
2022-09-13T09:40:40.254Z,7.4
2022-09-13T09:41:27.688Z,7.4
2022-09-13T09:42:14.955Z,7.4
2022-09-13T09:43:02.190Z,7.4
2022-09-13T09:43:49.810Z,7.4
2022-09-13T09:44:37.121Z,7.4
2022-09-13T09:45:24.403Z,7.4
2022-09-13T09:46:11.842Z,7.4
2022-09-13T09:46:59.244Z,7.4
2022-09-13T09:47:46.699Z,7.4
2022-09-13T09:48:33.965Z,7.4
2022-09-13T09:49:21.258Z,7.4
2022-09-13T09:50:08.549Z,7.4
2022-09-13T09:50:55.961Z,7.4
2022-09-13T09:51:43.224Z,7.4
2022-09-13T09:52:30.482Z,7.4
2022-09-13T09:53:17.935Z,7.4
2022-09-13T09:54:05.235Z,7.4
2022-09-13T09:54:52.609Z,7.4
2022-09-13T09:55:39.940Z,7.4
2022-09-13T09:56:27.201Z,7.4
2022-09-13T09:57:14.480Z,7.4
2022-09-13T09:58:01.890Z,7.4
2022-09-13T09:58:49.161Z,7.4
2022-09-13T09:59:36.431Z,7.4
2022-09-13T10:00:23.832Z,7.4
2022-09-13T10:01:11.445Z,7.4
2022-09-13T10:01:58.885Z,7.4
2022-09-13T10:02:46.200Z,7.4
2022-09-13T10:03:33.530Z,7.4
2022-09-13T10:04:20.792Z,7.4
2022-09-13T10:05:08.196Z,7.4
2022-09-13T10:05:55.510Z,7.4
2022-09-13T10:06:42.798Z,7.4
2022-09-13T10:07:30.176Z,7.4
2022-09-13T10:08:17.453Z,7.4
2022-09-13T10:09:04.724Z,7.4
2022-09-13T10:09:52.129Z,7.4
2022-09-13T10:10:39.400Z,7.4
2022-09-13T10:11:26.673Z,7.4
2022-09-13T10:12:14.056Z,7.4
2022-09-13T10:13:01.369Z,7.4
2022-09-13T10:13:48.735Z,7.4
2022-09-13T10:14:36.096Z,7.4
2022-09-13T10:15:23.366Z,7.4
2022-09-13T10:16:10.648Z,7.4
2022-09-13T10:16:58.104Z,7.4
2022-09-13T10:17:45.409Z,7.4
2022-09-13T10:18:43.917Z,7.4
2022-09-13T10:19:29.941Z,5.5
2022-09-13T10:20:17.370Z,5.5
2022-09-13T10:21:04.645Z,5.5
2022-09-13T10:21:51.917Z,5.5
2022-09-13T10:22:39.350Z,5.5
2022-09-13T10:23:26.652Z,5.5
2022-09-13T10:24:13.930Z,5.5
2022-09-13T10:25:01.389Z,5.5
2022-09-13T10:25:48.655Z,5.5
2022-09-13T10:26:36.110Z,5.5
2022-09-13T10:27:23.516Z,5.5
2022-09-13T10:28:10.802Z,5.5
2022-09-13T10:28:58.064Z,5.5
2022-09-13T10:29:45.513Z,5.5
2022-09-13T10:30:32.855Z,5.5
2022-09-13T10:31:20.226Z,5.5
2022-09-13T10:32:07.581Z,5.5
2022-09-13T10:32:54.857Z,5.5
2022-09-13T10:33:42.149Z,5.5
2022-09-13T10:34:29.615Z,5.5
2022-09-13T10:35:17.123Z,5.5
2022-09-13T10:36:04.407Z,5.5
2022-09-13T10:36:53.201Z,5.5
2022-09-13T10:37:40.920Z,5.5
2022-09-13T10:38:28.185Z,5.5
2022-09-13T10:39:15.548Z,5.5
2022-09-13T10:40:02.935Z,5.5
2022-09-13T10:40:50.227Z,5.5
2022-09-13T10:41:37.674Z,5.5
2022-09-13T10:42:24.962Z,5.5
2022-09-13T10:43:12.272Z,5.5
2022-09-13T10:43:59.581Z,5.5
2022-09-13T10:44:46.857Z,5.5
2022-09-13T10:45:34.194Z,5.5
2022-09-13T10:46:21.524Z,5.5
2022-09-13T10:47:08.826Z,5.5
2022-09-13T10:47:56.278Z,5.5
2022-09-13T10:48:43.764Z,5.5
2022-09-13T10:49:31.068Z,5.5
2022-09-13T10:50:18.369Z,5.5
2022-09-13T10:51:05.636Z,5.5
2022-09-13T10:51:52.892Z,5.5
2022-09-13T10:52:40.180Z,5.5
2022-09-13T10:53:27.452Z,5.5
2022-09-13T10:54:14.732Z,5.5
2022-09-13T10:55:02.015Z,5.5
2022-09-13T10:55:49.303Z,5.5
2022-09-13T10:56:36.573Z,5.5
2022-09-13T10:57:23.852Z,5.5
2022-09-13T10:58:11.132Z,5.5
2022-09-13T10:58:58.395Z,5.5
2022-09-13T10:59:45.689Z,5.5
2022-09-13T11:00:32.959Z,5.5
2022-09-13T11:01:20.294Z,5.5
2022-09-13T11:02:07.585Z,5.5
2022-09-13T11:02:54.871Z,5.5
2022-09-13T11:03:42.159Z,5.5
2022-09-13T11:04:29.468Z,5.5
2022-09-13T11:05:16.790Z,5.5
2022-09-13T11:06:04.070Z,5.5
2022-09-13T11:06:51.444Z,5.5
2022-09-13T11:07:38.725Z,5.5
2022-09-13T11:08:26.020Z,5.5
2022-09-13T11:09:13.313Z,5.5
2022-09-13T11:10:00.580Z,5.5
2022-09-13T11:10:47.856Z,5.5
2022-09-13T11:11:35.176Z,5.5
2022-09-13T11:12:22.546Z,5.5
2022-09-13T11:13:09.811Z,5.5
2022-09-13T11:13:57.132Z,5.5
2022-09-13T11:14:44.420Z,5.5
2022-09-13T11:15:31.784Z,5.5
2022-09-13T11:16:19.080Z,5.5
2022-09-13T11:17:06.385Z,5.5
2022-09-13T11:17:53.671Z,5.5
2022-09-13T11:18:40.988Z,5.5
2022-09-13T11:19:28.451Z,5.1
2022-09-13T11:20:15.903Z,5.1
2022-09-13T11:21:03.170Z,5.1
2022-09-13T11:21:50.438Z,5.1
2022-09-13T11:22:37.709Z,5.1
2022-09-13T11:23:25.021Z,5.1
2022-09-13T11:24:12.335Z,5.1
2022-09-13T11:24:59.621Z,5.1
2022-09-13T11:25:46.922Z,5.1
2022-09-13T11:26:38.338Z,5.1
2022-09-13T11:27:25.935Z,5.1
2022-09-13T11:28:13.362Z,5.1
2022-09-13T11:29:00.646Z,5.1
2022-09-13T11:29:47.921Z,5.1
2022-09-13T11:30:35.338Z,5.1
2022-09-13T11:31:22.635Z,5.1
2022-09-13T11:32:09.917Z,5.1
2022-09-13T11:32:57.353Z,5.1
2022-09-13T11:33:44.621Z,5.1
2022-09-13T11:34:31.897Z,5.1
2022-09-13T11:35:19.334Z,5.1
2022-09-13T11:36:06.609Z,5.1
2022-09-13T11:36:53.846Z,5.1
2022-09-13T11:37:41.299Z,5.1
2022-09-13T11:38:28.594Z,5.1
2022-09-13T11:39:15.903Z,5.1
2022-09-13T11:40:03.373Z,5.1
2022-09-13T11:40:50.678Z,5.1
2022-09-13T11:41:37.933Z,5.1
2022-09-13T11:42:25.374Z,5.1
2022-09-13T11:43:12.642Z,5.1
2022-09-13T11:43:59.925Z,5.1
2022-09-13T11:44:47.301Z,5.1
2022-09-13T11:45:34.610Z,5.1
2022-09-13T11:46:21.908Z,5.1
2022-09-13T11:47:09.324Z,5.1
2022-09-13T11:47:56.621Z,5.1
2022-09-13T11:48:43.903Z,5.1
2022-09-13T11:49:31.307Z,5.1
2022-09-13T11:50:18.586Z,5.1
2022-09-13T11:51:05.881Z,5.1
2022-09-13T11:51:53.254Z,5.1
2022-09-13T11:52:40.701Z,5.1
2022-09-13T11:53:30.072Z,5.1
2022-09-13T11:54:17.602Z,5.1
2022-09-13T11:55:04.924Z,5.1
2022-09-13T11:55:52.246Z,5.1
2022-09-13T11:56:39.543Z,5.1
2022-09-13T11:57:26.993Z,5.1
2022-09-13T11:58:14.304Z,5.1
2022-09-13T11:59:01.622Z,5.1
2022-09-13T11:59:49.080Z,5.1
2022-09-13T12:00:36.372Z,5.1
2022-09-13T12:01:23.696Z,5.1
2022-09-13T12:02:11.261Z,5.1
2022-09-13T12:02:58.650Z,5.1
2022-09-13T12:03:46.088Z,5.1
2022-09-13T12:04:33.971Z,5.1
2022-09-13T12:05:22.870Z,5.1
2022-09-13T12:06:57.988Z,5.1
2022-09-13T12:07:45.391Z,5.1
2022-09-13T12:08:32.667Z,5.1
2022-09-13T12:09:20.011Z,5.1
2022-09-13T12:10:07.395Z,5.1
2022-09-13T12:10:54.705Z,5.1
2022-09-13T12:11:42.028Z,5.1
2022-09-13T12:12:29.309Z,5.1
2022-09-13T12:13:16.624Z,5.1
2022-09-13T12:14:03.913Z,5.1
2022-09-13T12:14:51.208Z,5.1
2022-09-13T12:15:38.508Z,5.1
2022-09-13T12:16:25.828Z,5.1
2022-09-13T12:17:13.132Z,5.1
2022-09-13T12:18:00.459Z,5.1
2022-09-13T12:18:47.749Z,5.1
2022-09-13T12:19:35.034Z,13.9
2022-09-13T12:20:22.319Z,13.9
2022-09-13T12:21:09.615Z,13.9
2022-09-13T12:21:56.904Z,13.9
2022-09-13T12:22:44.168Z,13.9
2022-09-13T12:23:31.740Z,13.9
2022-09-13T12:24:19.029Z,13.9
2022-09-13T12:25:06.330Z,13.9
2022-09-13T12:25:53.623Z,13.9
2022-09-13T12:26:40.901Z,13.9
2022-09-13T12:27:28.165Z,13.9
2022-09-13T12:28:15.641Z,13.9
2022-09-13T12:29:03.013Z,13.9
2022-09-13T12:29:50.311Z,13.9
2022-09-13T12:30:37.618Z,13.9
2022-09-13T12:31:24.930Z,13.9
2022-09-13T12:32:12.229Z,13.9
2022-09-13T12:32:59.542Z,13.9
2022-09-13T12:33:46.842Z,13.9
2022-09-13T12:34:34.118Z,13.9
2022-09-13T12:35:21.767Z,13.9
2022-09-13T12:36:09.024Z,13.9
2022-09-13T12:36:56.290Z,13.9
2022-09-13T12:37:43.581Z,13.9
2022-09-13T12:38:31.668Z,13.9
2022-09-13T12:39:19.123Z,13.9
2022-09-13T12:40:06.543Z,13.9
2022-09-13T12:40:53.893Z,13.9
2022-09-13T12:41:41.162Z,13.9
2022-09-13T12:42:28.455Z,13.9
2022-09-13T12:43:15.730Z,13.9
2022-09-13T12:44:03.001Z,13.9
2022-09-13T12:44:50.298Z,13.9
2022-09-13T12:45:37.627Z,13.9
2022-09-13T12:46:24.922Z,13.9
2022-09-13T12:47:12.192Z,13.9
2022-09-13T12:47:59.489Z,13.9
2022-09-13T12:48:46.770Z,13.9
2022-09-13T12:49:34.045Z,13.9
2022-09-13T12:50:41.945Z,13.9
2022-09-13T12:51:18.581Z,13.9
2022-09-13T12:52:05.987Z,13.9
2022-09-13T12:52:53.252Z,13.9
2022-09-13T12:53:40.549Z,13.9
2022-09-13T12:54:27.945Z,13.9
2022-09-13T12:55:42.415Z,13.9
2022-09-13T12:56:12.470Z,13.9
2022-09-13T12:56:59.884Z,13.9
2022-09-13T12:57:47.173Z,13.9
2022-09-13T12:58:34.461Z,13.9
2022-09-13T12:59:21.860Z,13.9
2022-09-13T13:00:09.143Z,13.9
2022-09-13T13:00:56.481Z,13.9
2022-09-13T13:01:44.081Z,13.9
2022-09-13T13:02:31.441Z,13.9
2022-09-13T13:03:18.721Z,13.9
2022-09-13T13:04:06.189Z,13.9
2022-09-13T13:04:53.481Z,13.9
2022-09-13T13:05:41.085Z,13.9
2022-09-13T13:06:28.502Z,13.9
2022-09-13T13:07:15.788Z,13.9
2022-09-13T13:08:03.058Z,13.9
2022-09-13T13:08:50.518Z,13.9
2022-09-13T13:09:37.780Z,13.9
2022-09-13T13:10:25.050Z,13.9
2022-09-13T13:11:12.467Z,13.9
2022-09-13T13:11:59.742Z,13.9
2022-09-13T13:12:47.013Z,13.9
2022-09-13T13:13:34.562Z,13.9
2022-09-13T13:14:21.841Z,13.9
2022-09-13T13:15:09.109Z,13.9
2022-09-13T13:15:56.560Z,13.9
2022-09-13T13:16:43.905Z,13.9
2022-09-13T13:17:31.239Z,13.9
2022-09-13T13:18:18.823Z,13.9
2022-09-13T13:19:06.113Z,13.9
2022-09-13T13:19:53.411Z,7.5
2022-09-13T13:20:40.777Z,7.5
2022-09-13T13:21:28.058Z,7.5
2022-09-13T13:22:15.331Z,7.5
2022-09-13T13:23:02.729Z,7.5
2022-09-13T13:23:50.080Z,7.5
2022-09-13T13:24:37.469Z,7.5
2022-09-13T13:25:24.870Z,7.5
2022-09-13T13:26:12.144Z,7.5
2022-09-13T13:26:59.425Z,7.5
2022-09-13T13:27:48.594Z,7.5
2022-09-13T13:28:36.088Z,7.5
2022-09-13T13:29:23.424Z,7.5
2022-09-13T13:30:10.696Z,7.5
2022-09-13T13:30:57.974Z,7.5
2022-09-13T13:31:45.335Z,7.5
2022-09-13T13:32:32.639Z,7.5
2022-09-13T13:33:19.909Z,7.5
2022-09-13T13:34:07.233Z,7.5
2022-09-13T13:34:54.641Z,7.5
2022-09-13T13:35:41.900Z,7.5
2022-09-13T13:36:29.266Z,7.5
2022-09-13T13:37:16.541Z,7.5
2022-09-13T13:38:03.803Z,7.5
2022-09-13T13:38:51.128Z,7.5
2022-09-13T13:39:38.404Z,7.5
2022-09-13T13:40:25.791Z,7.5
2022-09-13T13:41:13.215Z,7.5
2022-09-13T13:42:00.504Z,7.5
2022-09-13T13:42:47.760Z,7.5
2022-09-13T13:43:35.142Z,7.5
2022-09-13T13:44:22.431Z,7.5
2022-09-13T13:45:09.697Z,7.5
2022-09-13T13:45:57.075Z,7.5
2022-09-13T13:46:44.369Z,7.5
2022-09-13T13:47:31.662Z,7.5
2022-09-13T13:48:18.897Z,7.5
2022-09-13T13:49:06.183Z,7.5
2022-09-13T13:49:53.462Z,7.5
2022-09-13T13:50:40.749Z,7.5
2022-09-13T13:51:28.132Z,7.5
2022-09-13T13:52:15.396Z,7.5
2022-09-13T13:53:02.704Z,7.5
2022-09-13T13:53:49.993Z,7.5
2022-09-13T13:54:37.381Z,7.5
2022-09-13T13:55:24.662Z,7.5
2022-09-13T13:56:11.969Z,7.5
2022-09-13T13:56:59.309Z,7.5
2022-09-13T13:57:46.788Z,7.5
2022-09-13T13:58:34.130Z,7.5
2022-09-13T13:59:21.395Z,7.5
2022-09-13T14:00:08.701Z,7.5
2022-09-13T14:00:56.019Z,7.5
2022-09-13T14:01:43.381Z,7.5
2022-09-13T14:02:30.646Z,7.5
2022-09-13T14:03:17.917Z,7.5
2022-09-13T14:04:05.278Z,7.5
2022-09-13T14:04:52.626Z,7.5
2022-09-13T14:05:39.891Z,7.5
2022-09-13T14:06:27.166Z,7.5
2022-09-13T14:07:21.316Z,7.5
2022-09-13T14:08:58.405Z,7.5
2022-09-13T14:09:46.739Z,7.5
2022-09-13T14:10:34.038Z,7.5
2022-09-13T14:11:21.365Z,7.5
2022-09-13T14:12:08.638Z,7.5
2022-09-13T14:12:56.069Z,7.5
2022-09-13T14:13:43.345Z,7.5
2022-09-13T14:14:30.612Z,7.5
2022-09-13T14:15:18.080Z,7.5
2022-09-13T14:16:05.350Z,7.5
2022-09-13T14:16:52.656Z,7.5
2022-09-13T14:17:40.048Z,7.5
2022-09-13T14:18:27.312Z,7.5
2022-09-13T14:19:14.722Z,4.3
2022-09-13T14:20:02.473Z,4.3
2022-09-13T14:20:50.009Z,4.3
2022-09-13T14:21:37.283Z,4.3
2022-09-13T14:22:24.545Z,4.3
2022-09-13T14:23:11.849Z,4.3
2022-09-13T14:23:59.166Z,4.3
2022-09-13T14:24:46.498Z,4.3
2022-09-13T14:25:33.838Z,4.3
2022-09-13T14:26:21.123Z,4.3
2022-09-13T14:27:20.691Z,4.3
2022-09-13T14:29:04.049Z,4.3
2022-09-13T14:29:51.483Z,4.3
2022-09-13T14:30:38.762Z,4.3
2022-09-13T14:31:26.079Z,4.3
2022-09-13T14:32:13.474Z,4.3
2022-09-13T14:33:00.971Z,4.3
2022-09-13T14:33:48.244Z,4.3
2022-09-13T14:34:35.663Z,4.3
2022-09-13T14:35:22.928Z,4.3
2022-09-13T14:36:10.193Z,4.3
2022-09-13T14:36:57.648Z,4.3
2022-09-13T14:37:44.918Z,4.3
2022-09-13T14:38:32.190Z,4.3
2022-09-13T14:39:19.610Z,4.3
2022-09-13T14:40:06.914Z,4.3
2022-09-13T14:40:54.235Z,4.3
2022-09-13T14:41:41.656Z,4.3
2022-09-13T14:42:28.937Z,4.3
2022-09-13T14:43:16.218Z,4.3
2022-09-13T14:44:03.671Z,4.3
2022-09-13T14:44:50.967Z,4.3
2022-09-13T14:45:38.229Z,4.3
2022-09-13T14:46:25.788Z,4.3
2022-09-13T14:47:13.266Z,4.3